Time;durP1;ratioP1;P1;durP2;ratioP2;P2;SDS_P1;SDS_P2;PMS_P1;PMS_P2;Temp;Humidity;BMP_temperature;BMP_pressure;BME280_temperature;BME280_humidity;BME280_pressure;Samples;Min_cycle;Max_cycle;Signal;HPM_P1;HPM_P2
2021/06/25 00:01:40;;;;;;;4.40;4.00;;;12.80;99.90;;;;;;5113648;27;20039;-80
2021/06/25 00:04:05;;;;;;;6.38;5.85;;;12.80;99.90;;;;;;5100388;28;20039;-81
2021/06/25 00:06:32;;;;;;;7.93;5.00;;;12.70;99.90;;;;;;5099703;28;20032;-80
2021/06/25 00:08:57;;;;;;;3.58;3.35;;;12.60;99.90;;;;;;5101023;28;20062;-80
2021/06/25 00:11:24;;;;;;;4.05;3.78;;;12.50;99.90;;;;;;5105001;28;20048;-80
2021/06/25 00:13:50;;;;;;;5.38;4.90;;;12.50;99.90;;;;;;5101677;28;20032;-80
2021/06/25 00:16:15;;;;;;;5.97;5.57;;;12.30;99.90;;;;;;5101060;28;20039;-80
2021/06/25 00:18:41;;;;;;;6.38;5.78;;;12.20;99.90;;;;;;5101176;28;20044;-80
2021/06/25 00:21:07;;;;;;;6.18;5.28;;;12.20;99.90;;;;;;5100076;28;20085;-80
2021/06/25 00:23:33;;;;;;;5.55;5.03;;;12.10;99.90;;;;;;5098859;28;20089;-80
2021/06/25 00:25:59;;;;;;;5.97;5.47;;;12.10;99.90;;;;;;5098382;28;20031;-80
2021/06/25 00:28:24;;;;;;;8.07;5.25;;;12.00;99.90;;;;;;5097981;28;20547;-80
2021/06/25 00:30:50;;;;;;;6.90;6.00;;;12.10;99.90;;;;;;5101379;28;20039;-80
2021/06/25 00:33:16;;;;;;;8.07;6.60;;;12.00;99.90;;;;;;5097877;28;20033;-80
2021/06/25 00:35:42;;;;;;;7.40;6.70;;;12.00;99.90;;;;;;5102789;28;20036;-80
2021/06/25 00:38:08;;;;;;;8.73;5.80;;;12.00;99.90;;;;;;5097920;28;20407;-79
2021/06/25 00:40:34;;;;;;;6.82;6.10;;;12.00;99.90;;;;;;5096989;28;20035;-80
2021/06/25 00:43:01;;;;;;;6.00;5.35;;;11.90;99.90;;;;;;5101257;28;20758;-80
2021/06/25 00:45:26;;;;;;;6.50;6.00;;;11.80;99.90;;;;;;5101439;28;20036;-80
2021/06/25 00:47:52;;;;;;;6.05;5.50;;;11.80;99.90;;;;;;5099287;28;20624;-80
2021/06/25 00:50:20;;;;;;;4.63;4.32;;;11.80;99.90;;;;;;5100934;28;20044;-80
2021/06/25 00:52:50;;;;;;;6.00;5.60;;;11.80;99.90;;;;;;5099780;28;20035;-80
2021/06/25 00:55:16;;;;;;;6.50;5.88;;;11.70;99.90;;;;;;5101301;28;20032;-80
2021/06/25 00:57:42;;;;;;;8.43;7.72;;;11.80;99.90;;;;;;5102371;28;20945;-80
2021/06/25 01:00:08;;;;;;;4.50;4.20;;;11.70;99.90;;;;;;5099412;28;20449;-80
2021/06/25 01:02:34;;;;;;;6.78;6.18;;;11.60;99.90;;;;;;5098310;28;20764;-80
2021/06/25 01:05:00;;;;;;;7.18;6.60;;;11.60;99.90;;;;;;5101895;28;20036;-80
2021/06/25 01:07:26;;;;;;;7.07;5.47;;;11.50;99.90;;;;;;5096965;28;20042;-80
2021/06/25 01:09:53;;;;;;;3.72;3.45;;;11.50;99.90;;;;;;5117256;27;20122;-80
2021/06/25 01:12:19;;;;;;;3.83;3.50;;;11.50;99.90;;;;;;5100914;28;20518;-80
2021/06/25 01:14:45;;;;;;;4.40;4.00;;;11.50;99.90;;;;;;5098794;28;20039;-80
2021/06/25 01:17:29;;;;;;;5.15;4.75;;;11.40;99.90;;;;;;5102153;28;20606;-80
2021/06/25 01:19:56;;;;;;;4.57;3.75;;;11.40;99.90;;;;;;5099361;27;20039;-80
2021/06/25 01:22:25;;;;;;;5.57;5.05;;;11.40;99.90;;;;;;5099714;28;20039;-79
2021/06/25 01:24:50;;;;;;;2.60;1.85;;;11.40;99.90;;;;;;5100177;28;20084;-80
2021/06/25 01:27:16;;;;;;;5.07;2.10;;;11.30;99.90;;;;;;5093249;28;20043;-79
2021/06/25 01:29:41;;;;;;;2.60;2.40;;;11.30;99.90;;;;;;5102451;28;20825;-79
2021/06/25 01:32:07;;;;;;;3.33;3.10;;;11.30;99.90;;;;;;5101970;28;20435;-79
2021/06/25 01:34:33;;;;;;;4.03;2.88;;;11.20;99.90;;;;;;5114810;27;20039;-80
2021/06/25 01:36:59;;;;;;;5.07;2.97;;;11.20;99.90;;;;;;5099754;28;20046;-79
2021/06/25 01:39:27;;;;;;;16.30;3.40;;;11.10;99.90;;;;;;5101917;28;20100;-80
2021/06/25 01:41:53;;;;;;;5.13;4.25;;;11.10;99.90;;;;;;5096757;28;20035;-79
2021/06/25 01:44:19;;;;;;;4.63;4.32;;;11.10;99.90;;;;;;5099866;28;20552;-80
2021/06/25 01:46:45;;;;;;;4.60;4.20;;;11.10;99.90;;;;;;5098766;28;20062;-79
2021/06/25 01:49:12;;;;;;;4.85;4.45;;;11.10;99.90;;;;;;5099454;28;20119;-79
2021/06/25 01:51:38;;;;;;;4.82;4.43;;;11.10;99.90;;;;;;5094962;28;20036;-79
2021/06/25 01:54:04;;;;;;;4.80;4.50;;;11.10;99.90;;;;;;5097025;28;20032;-79
2021/06/25 01:56:29;;;;;;;5.95;5.45;;;11.10;99.90;;;;;;5097953;28;20771;-79
2021/06/25 01:58:55;;;;;;;4.68;4.28;;;11.10;99.90;;;;;;5100530;28;20035;-79
2021/06/25 02:01:21;;;;;;;4.30;3.83;;;11.00;99.90;;;;;;5114246;27;20445;-79
2021/06/25 02:03:48;;;;;;;4.97;4.55;;;11.00;99.90;;;;;;5097315;28;20051;-79
2021/06/25 02:06:14;;;;;;;3.78;3.47;;;11.00;99.90;;;;;;5096775;28;20044;-79
2021/06/25 02:08:41;;;;;;;2.95;2.75;;;11.00;99.90;;;;;;5099430;28;20043;-80
2021/06/25 02:11:08;;;;;;;2.50;2.30;;;11.00;99.90;;;;;;5097570;28;20047;-79
2021/06/25 02:13:34;;;;;;;3.13;2.88;;;10.90;99.90;;;;;;5097150;28;20046;-80
2021/06/25 02:16:00;;;;;;;2.33;2.22;;;10.90;99.90;;;;;;5097776;28;20036;-79
2021/06/25 02:18:26;;;;;;;3.00;2.80;;;10.90;99.90;;;;;;5100980;28;20861;-79
2021/06/25 02:20:52;;;;;;;2.22;2.03;;;10.90;99.90;;;;;;5098987;27;20039;-79
2021/06/25 02:23:18;;;;;;;2.35;2.25;;;10.80;99.90;;;;;;5094117;28;20043;-79
2021/06/25 02:25:44;;;;;;;3.53;3.22;;;10.80;99.90;;;;;;5097440;28;20035;-79
2021/06/25 02:28:09;;;;;;;2.70;2.50;;;10.70;99.90;;;;;;5093105;28;20057;-80
2021/06/25 02:30:35;;;;;;;4.40;2.30;;;10.60;99.90;;;;;;5096843;28;20515;-80
2021/06/25 02:33:01;;;;;;;4.80;4.50;;;10.60;99.90;;;;;;5099275;27;20047;-80
2021/06/25 02:35:27;;;;;;;4.60;4.30;;;10.60;99.90;;;;;;5097784;28;20043;-79
2021/06/25 02:37:55;;;;;;;4.03;3.72;;;10.60;99.90;;;;;;5098720;28;20086;-79
2021/06/25 02:40:21;;;;;;;4.78;4.28;;;10.60;99.90;;;;;;5096577;28;20535;-80
2021/06/25 02:42:47;;;;;;;4.40;4.10;;;10.60;99.90;;;;;;5097685;28;20051;-78
2021/06/25 02:45:13;;;;;;;4.78;4.38;;;10.50;99.90;;;;;;5099501;28;20044;-79
2021/06/25 02:47:38;;;;;;;5.55;5.07;;;10.50;99.90;;;;;;5100080;28;20509;-79
2021/06/25 02:50:07;;;;;;;11.20;5.93;;;10.50;99.90;;;;;;5095224;28;20043;-79
2021/06/25 02:52:33;;;;;;;12.15;6.50;;;10.50;99.90;;;;;;5115110;27;20040;-80
2021/06/25 02:54:59;;;;;;;5.25;4.90;;;10.50;99.90;;;;;;5114011;27;20036;-79
2021/06/25 02:57:24;;;;;;;136.30;7.60;;;10.50;99.90;;;;;;5096258;28;20034;-80
2021/06/25 02:59:50;;;;;;;32.85;4.40;;;10.50;99.90;;;;;;5094788;28;20031;-80
2021/06/25 03:02:16;;;;;;;24.05;4.40;;;10.50;99.90;;;;;;5096861;28;20044;-80
2021/06/25 03:04:42;;;;;;;16.98;4.00;;;10.50;99.90;;;;;;5098445;28;20581;-79
2021/06/25 03:07:08;;;;;;;63.63;5.22;;;10.40;99.90;;;;;;5099277;28;20120;-80
2021/06/25 03:09:36;;;;;;;6.68;4.00;;;10.50;99.90;;;;;;5102741;27;20044;-80
2021/06/25 03:12:02;;;;;;;13.35;3.03;;;10.40;99.90;;;;;;5102504;28;20035;-80
2021/06/25 03:14:28;;;;;;;54.30;4.25;;;10.40;99.90;;;;;;5096282;28;20047;-80
2021/06/25 03:16:54;;;;;;;43.53;4.35;;;10.40;99.90;;;;;;5096295;28;20039;-79
2021/06/25 03:19:19;;;;;;;60.88;4.78;;;10.40;99.90;;;;;;5098121;28;20065;-80
2021/06/25 03:21:45;;;;;;;82.72;4.75;;;10.40;99.90;;;;;;5099419;28;20040;-80
2021/06/25 03:24:11;;;;;;;24.45;3.67;;;10.30;99.90;;;;;;5094202;28;20042;-80
2021/06/25 03:26:37;;;;;;;27.77;3.30;;;10.40;99.90;;;;;;5098024;28;20126;-80
2021/06/25 03:29:03;;;;;;;39.47;4.22;;;10.40;99.90;;;;;;5095601;28;20114;-79
2021/06/25 03:31:29;;;;;;;40.00;3.53;;;10.40;99.90;;;;;;5110351;28;20102;-80
2021/06/25 03:33:54;;;;;;;7.25;2.58;;;10.30;99.90;;;;;;5095971;28;20036;-80
2021/06/25 03:36:20;;;;;;;9.15;2.33;;;10.40;99.90;;;;;;5097468;28;20050;-80
2021/06/25 03:38:45;;;;;;;3.88;1.90;;;10.40;99.90;;;;;;5100358;28;20122;-80
2021/06/25 03:41:11;;;;;;;13.90;2.50;;;10.40;99.90;;;;;;5096557;28;20103;-80
2021/06/25 03:43:37;;;;;;;29.77;2.00;;;10.40;99.90;;;;;;5099448;28;20040;-80
2021/06/25 03:46:04;;;;;;;29.88;3.22;;;10.40;99.90;;;;;;5098656;28;20471;-80
2021/06/25 03:48:30;;;;;;;99.55;4.32;;;10.40;99.90;;;;;;5100123;28;20067;-80
2021/06/25 03:50:55;;;;;;;90.65;4.40;;;10.30;99.90;;;;;;5101060;28;20514;-80
2021/06/25 03:53:21;;;;;;;17.80;3.42;;;10.40;99.90;;;;;;5097031;28;20044;-80
2021/06/25 03:58:32;;;;;;;40.33;3.60;;;10.40;99.90;;;;;;5097865;28;20036;-80
2021/06/25 04:00:57;;;;;;;196.68;7.40;;;10.40;99.90;;;;;;5099093;28;20495;-80
2021/06/25 04:03:24;;;;;;;40.33;3.67;;;10.40;99.90;;;;;;5100200;28;20043;-80
2021/06/25 04:05:50;;;;;;;13.70;3.15;;;10.40;99.90;;;;;;5099381;28;20086;-79
2021/06/25 04:08:16;;;;;;;15.57;3.75;;;10.50;99.90;;;;;;5100522;28;20040;-80
2021/06/25 04:10:42;;;;;;;31.45;5.40;;;10.60;99.90;;;;;;5096923;28;20035;-80
2021/06/25 04:13:08;;;;;;;6.55;3.60;;;10.60;99.90;;;;;;5094091;28;20036;-80
2021/06/25 04:15:34;;;;;;;95.28;4.45;;;10.60;99.90;;;;;;5110118;28;20036;-80
2021/06/25 04:18:00;;;;;;;82.53;4.55;;;10.70;99.90;;;;;;5101801;28;20043;-80
2021/06/25 04:20:26;;;;;;;68.13;4.50;;;10.70;99.90;;;;;;5113601;27;20028;-80
2021/06/25 04:22:51;;;;;;;57.00;5.05;;;10.70;99.90;;;;;;5101318;28;20039;-80
2021/06/25 04:25:17;;;;;;;89.32;5.13;;;10.70;99.90;;;;;;5105035;28;20411;-80
2021/06/25 04:27:43;;;;;;;102.05;6.32;;;10.80;99.90;;;;;;5101107;28;20048;-80
2021/06/25 04:30:11;;;;;;;35.13;5.10;;;10.80;99.90;;;;;;5117534;27;20032;-80
2021/06/25 04:32:39;;;;;;;81.43;4.88;;;10.90;99.90;;;;;;5102077;28;20036;-80
2021/06/25 04:35:06;;;;;;;148.82;7.22;;;10.90;99.90;;;;;;5101017;28;20043;-80
2021/06/25 04:37:32;;;;;;;42.80;3.88;;;11.00;99.90;;;;;;5103143;28;20048;-80
2021/06/25 04:39:57;;;;;;;31.90;3.90;;;11.10;99.90;;;;;;5103699;28;20086;-80
2021/06/25 04:42:23;;;;;;;45.92;4.18;;;11.20;99.90;;;;;;5103572;28;20036;-81
2021/06/25 04:44:49;;;;;;;21.65;4.63;;;11.30;99.90;;;;;;5104107;28;20036;-80
2021/06/25 04:47:14;;;;;;;34.85;4.93;;;11.30;99.90;;;;;;5106243;28;20042;-80
2021/06/25 04:49:43;;;;;;;45.90;5.72;;;11.50;99.90;;;;;;5105326;28;20035;-80
2021/06/25 04:52:09;;;;;;;43.92;6.55;;;11.60;99.90;;;;;;5106804;28;20410;-81
2021/06/25 04:54:35;;;;;;;37.70;6.00;;;11.80;99.90;;;;;;5107682;28;20479;-80
2021/06/25 04:57:02;;;;;;;20.10;6.03;;;11.80;99.90;;;;;;5101973;28;20040;-81
2021/06/25 04:59:28;;;;;;;62.15;8.05;;;12.00;99.90;;;;;;5107357;28;20574;-81
2021/06/25 05:01:54;;;;;;;30.45;7.63;;;12.20;99.90;;;;;;5105570;28;20031;-81
2021/06/25 05:04:20;;;;;;;13.20;6.47;;;12.60;99.90;;;;;;5102069;27;20039;-80
2021/06/25 05:06:49;;;;;;;17.00;8.05;;;12.80;99.90;;;;;;5100171;28;20487;-80
2021/06/25 05:09:15;;;;;;;18.33;8.45;;;13.10;99.90;;;;;;5104048;28;20108;-82
2021/06/25 05:11:41;;;;;;;12.27;7.85;;;13.40;99.90;;;;;;5105572;28;20071;-81
2021/06/25 05:14:22;;;;;;;8.25;7.43;;;13.60;99.90;;;;;;5101978;28;20096;-81
2021/06/25 05:16:47;;;;;;;7.50;6.90;;;13.80;99.90;;;;;;5100192;28;20062;-80
2021/06/25 05:19:13;;;;;;;7.65;7.05;;;14.00;99.90;;;;;;5104516;28;20054;-80
2021/06/25 05:21:39;;;;;;;8.00;7.30;;;14.40;99.90;;;;;;5106534;28;20040;-80
2021/06/25 05:24:05;;;;;;;9.38;8.68;;;14.60;99.90;;;;;;5106721;28;20097;-81
2021/06/25 05:26:30;;;;;;;9.05;8.35;;;14.90;99.90;;;;;;5100254;27;20039;-81
2021/06/25 05:28:57;;;;;;;8.93;8.23;;;15.30;99.90;;;;;;5107363;27;20032;-81
2021/06/25 05:31:22;;;;;;;9.50;8.68;;;15.60;99.90;;;;;;5106173;28;20040;-82
2021/06/25 05:33:48;;;;;;;9.57;8.82;;;16.00;99.90;;;;;;5104884;28;20039;-80
2021/06/25 05:36:14;;;;;;;10.13;9.32;;;16.30;99.90;;;;;;5103846;28;20144;-81
2021/06/25 05:38:39;;;;;;;10.63;9.63;;;16.50;99.90;;;;;;5103800;28;20457;-81
2021/06/25 05:41:05;;;;;;;9.88;8.98;;;16.80;99.90;;;;;;5101277;28;20085;-82
2021/06/25 05:43:31;;;;;;;11.18;10.20;;;17.00;99.90;;;;;;5102412;28;20035;-81
2021/06/25 05:45:59;;;;;;;10.30;9.50;;;17.60;99.30;;;;;;5105567;28;20112;-81
2021/06/25 05:48:25;;;;;;;10.90;9.90;;;17.70;98.90;;;;;;5105547;28;20085;-82
2021/06/25 05:50:52;;;;;;;10.57;9.65;;;18.00;98.30;;;;;;5107241;27;20039;-82
2021/06/25 05:53:18;;;;;;;10.60;9.80;;;18.10;97.90;;;;;;5106042;27;20024;-81
2021/06/25 05:55:43;;;;;;;11.48;10.52;;;18.30;97.70;;;;;;5106560;28;20084;-81
2021/06/25 05:58:09;;;;;;;10.90;10.02;;;18.40;96.60;;;;;;5107854;27;20036;-81
2021/06/25 06:00:35;;;;;;;10.70;9.80;;;18.60;96.70;;;;;;5107618;27;20415;-81
2021/06/25 06:03:01;;;;;;;10.90;9.90;;;18.60;96.70;;;;;;5109298;28;20042;-81
2021/06/25 06:05:27;;;;;;;10.50;9.40;;;18.70;96.50;;;;;;5105916;28;20036;-83
2021/06/25 06:07:53;;;;;;;10.93;9.98;;;18.80;95.90;;;;;;5107558;28;20054;-81
2021/06/25 06:10:19;;;;;;;10.55;9.13;;;18.90;95.90;;;;;;5100354;28;20119;-80
2021/06/25 06:12:45;;;;;;;9.25;8.55;;;19.10;95.70;;;;;;5105473;28;20044;-80
2021/06/25 06:15:12;;;;;;;10.80;8.43;;;19.30;95.80;;;;;;5102804;28;20138;-80
2021/06/25 06:17:40;;;;;;;9.23;8.32;;;19.40;95.50;;;;;;5100538;28;21570;-80
2021/06/25 06:20:06;;;;;;;11.93;8.80;;;19.40;95.50;;;;;;5102798;28;20056;-80
2021/06/25 06:36:09;;;;;;;10.05;9.15;;;18.80;96.20;;;;;;5101069;28;20040;-80
2021/06/25 06:38:36;;;;;;;10.07;9.13;;;18.60;96.40;;;;;;5104232;28;20055;-81
2021/06/25 06:41:02;;;;;;;12.48;9.80;;;18.40;96.80;;;;;;5103883;28;20594;-80
2021/06/25 06:43:28;;;;;;;11.10;10.07;;;18.40;97.20;;;;;;5121698;27;20039;-82
2021/06/25 06:45:53;;;;;;;19.88;11.07;;;18.20;97.50;;;;;;5103607;28;20502;-80
2021/06/25 06:48:19;;;;;;;11.82;10.82;;;18.20;97.30;;;;;;5104439;28;20039;-80
2021/06/25 06:50:44;;;;;;;10.80;9.90;;;18.20;97.20;;;;;;5100094;28;20042;-80
2021/06/25 06:53:10;;;;;;;11.13;10.20;;;18.00;97.30;;;;;;5120353;27;20114;-81
2021/06/25 06:55:42;;;;;;;12.13;11.05;;;18.00;97.40;;;;;;5101922;28;20036;-82
2021/06/25 06:58:12;;;;;;;13.20;11.75;;;18.00;97.70;;;;;;5105578;28;20130;-80
2021/06/25 07:00:38;;;;;;;12.93;11.52;;;18.00;97.50;;;;;;5103378;28;20047;-80
2021/06/25 07:03:04;;;;;;;12.90;11.50;;;18.10;97.80;;;;;;5108595;27;20039;-81
2021/06/25 07:05:31;;;;;;;11.75;10.15;;;18.30;96.90;;;;;;5103986;28;20036;-81
2021/06/25 07:07:56;;;;;;;12.20;11.05;;;18.50;96.80;;;;;;5102731;28;20032;-81
2021/06/25 07:10:22;;;;;;;23.95;12.05;;;18.60;95.00;;;;;;5109324;28;20034;-81
2021/06/25 07:12:47;;;;;;;18.42;11.90;;;18.60;95.50;;;;;;5128640;27;20032;-80
2021/06/25 07:15:13;;;;;;;14.30;11.20;;;18.70;94.80;;;;;;5106532;28;20131;-80
2021/06/25 07:17:39;;;;;;;15.93;10.60;;;18.60;95.10;;;;;;5106574;28;20483;-80
2021/06/25 07:20:06;;;;;;;11.25;10.18;;;18.60;95.00;;;;;;5110077;27;20027;-80
2021/06/25 07:22:33;;;;;;;11.15;10.05;;;18.60;94.60;;;;;;5105571;28;20034;-81
2021/06/25 07:24:59;;;;;;;11.88;10.50;;;18.60;93.90;;;;;;5114367;28;20041;-83
2021/06/25 07:27:24;;;;;;;10.18;9.35;;;18.60;94.50;;;;;;5103431;28;20047;-81
2021/06/25 07:29:50;;;;;;;9.55;7.53;;;18.60;93.80;;;;;;5108681;28;20123;-80
2021/06/25 07:32:16;;;;;;;8.75;7.68;;;18.60;91.60;;;;;;5098871;28;20165;-80
2021/06/25 07:34:42;;;;;;;7.53;6.57;;;18.60;91.70;;;;;;5112020;28;20629;-81
2021/06/25 07:37:08;;;;;;;7.95;6.65;;;18.60;91.40;;;;;;5111231;28;20035;-80
2021/06/25 07:39:34;;;;;;;6.13;5.50;;;18.70;91.20;;;;;;5111536;28;20463;-81
2021/06/25 07:41:59;;;;;;;7.93;7.22;;;18.60;90.60;;;;;;5100893;28;20032;-80
2021/06/25 07:44:25;;;;;;;7.43;5.90;;;18.70;90.30;;;;;;5109337;28;20057;-80
2021/06/25 07:46:51;;;;;;;8.38;6.45;;;18.80;91.10;;;;;;5101495;28;20104;-81
2021/06/25 07:49:16;;;;;;;6.85;6.07;;;19.10;88.10;;;;;;5098353;28;20118;-79
2021/06/25 07:51:42;;;;;;;6.88;5.25;;;19.20;88.60;;;;;;5110230;28;20038;-80
2021/06/25 07:54:08;;;;;;;5.07;4.35;;;19.30;87.10;;;;;;5104843;28;20036;-80
2021/06/25 07:56:33;;;;;;;4.40;4.00;;;19.30;84.20;;;;;;5116005;28;20061;-80
2021/06/25 07:58:59;;;;;;;7.32;3.80;;;19.30;80.40;;;;;;5105951;28;20036;-80
2021/06/25 08:01:25;;;;;;;6.07;4.40;;;19.30;80.70;;;;;;5130129;27;20047;-80
2021/06/25 08:03:52;;;;;;;5.50;4.38;;;19.40;79.60;;;;;;5104245;28;20028;-80
2021/06/25 08:06:19;;;;;;;4.93;4.45;;;19.40;81.80;;;;;;5111072;28;20048;-80
2021/06/25 08:08:45;;;;;;;4.65;3.38;;;19.50;80.30;;;;;;5111154;28;20097;-80
2021/06/25 08:11:10;;;;;;;6.10;4.25;;;19.40;78.20;;;;;;5109639;28;20517;-80
2021/06/25 08:13:36;;;;;;;4.95;4.43;;;19.60;77.00;;;;;;5113252;28;20039;-80
2021/06/25 08:16:02;;;;;;;4.53;3.53;;;19.70;77.30;;;;;;5111184;27;20039;-80
2021/06/25 08:18:27;;;;;;;8.43;3.60;;;19.80;78.50;;;;;;5121600;27;20455;-81
2021/06/25 08:20:53;;;;;;;3.45;3.13;;;19.90;78.00;;;;;;5112410;28;20115;-80
2021/06/25 08:23:20;;;;;;;4.25;3.72;;;20.10;73.40;;;;;;5112142;28;20813;-80
2021/06/25 08:25:46;;;;;;;3.70;3.40;;;20.10;75.90;;;;;;5107091;28;20061;-81
2021/06/25 08:28:11;;;;;;;4.70;3.90;;;20.20;73.00;;;;;;5113026;28;20043;-80
2021/06/25 08:30:37;;;;;;;4.85;4.07;;;20.20;74.80;;;;;;5103702;28;20040;-80
2021/06/25 08:33:03;;;;;;;5.60;3.30;;;20.20;75.80;;;;;;5107775;28;20042;-80
2021/06/25 08:35:29;;;;;;;8.75;3.72;;;20.20;75.70;;;;;;5109823;28;20031;-80
2021/06/25 08:37:54;;;;;;;4.40;3.92;;;20.30;77.70;;;;;;5119914;27;20046;-80
2021/06/25 08:40:21;;;;;;;8.88;3.95;;;20.30;75.30;;;;;;5120624;27;20036;-80
2021/06/25 08:42:48;;;;;;;5.43;3.78;;;20.30;75.20;;;;;;5108614;28;20036;-79
2021/06/25 08:45:14;;;;;;;4.75;3.53;;;20.40;73.30;;;;;;5106238;28;20043;-80
2021/06/25 08:47:49;;;;;;;3.58;2.83;;;20.30;76.00;;;;;;5107924;28;20052;-81
2021/06/25 08:50:18;;;;;;;5.97;3.97;;;20.30;76.70;;;;;;5101265;28;20039;-81
2021/06/25 08:52:51;;;;;;;4.90;3.30;;;20.30;76.40;;;;;;5109814;27;20052;-80
2021/06/25 08:55:17;;;;;;;5.00;3.85;;;20.20;71.80;;;;;;5105641;28;20034;-79
2021/06/25 08:57:44;;;;;;;7.50;4.15;;;20.20;73.50;;;;;;5106801;28;20040;-79
2021/06/25 09:00:13;;;;;;;7.28;4.00;;;20.10;76.40;;;;;;5110102;28;20048;-81
2021/06/25 09:02:39;;;;;;;6.28;4.57;;;20.00;76.80;;;;;;5103467;27;20119;-79
2021/06/25 09:05:07;;;;;;;8.27;5.57;;;19.90;78.70;;;;;;5106765;28;20111;-79
2021/06/25 09:07:42;;;;;;;11.07;5.47;;;19.90;78.70;;;;;;5107919;27;20051;-79
2021/06/25 09:10:10;;;;;;;9.10;5.07;;;19.90;80.70;;;;;;5110251;28;20150;-79
2021/06/25 09:12:36;;;;;;;14.23;6.15;;;19.90;80.70;;;;;;5108958;28;20035;-80
2021/06/25 09:15:03;;;;;;;7.30;6.32;;;19.90;79.90;;;;;;5110062;27;20046;-80
2021/06/25 09:17:29;;;;;;;7.00;6.32;;;19.80;79.20;;;;;;5110140;28;20725;-79
2021/06/25 09:19:56;;;;;;;7.00;5.88;;;19.80;79.00;;;;;;5110111;28;20035;-79
2021/06/25 09:22:21;;;;;;;7.90;5.28;;;19.70;80.30;;;;;;5107167;28;20039;-79
2021/06/25 09:25:07;;;;;;;5.38;4.65;;;19.70;79.30;;;;;;5109975;28;20053;-79
2021/06/25 09:27:34;;;;;;;4.63;4.13;;;19.60;80.60;;;;;;5108621;28;20040;-78
2021/06/25 09:30:09;;;;;;;5.90;3.78;;;19.60;75.00;;;;;;5108525;28;20621;-79
2021/06/25 09:32:37;;;;;;;5.63;4.80;;;19.50;78.60;;;;;;5110233;28;20047;-80
2021/06/25 09:35:14;;;;;;;8.27;5.57;;;19.50;79.90;;;;;;5129497;27;20046;-80
2021/06/25 09:37:42;;;;;;;10.52;6.47;;;19.50;81.00;;;;;;5106887;28;20067;-80
2021/06/25 09:40:08;;;;;;;8.15;7.35;;;19.60;79.50;;;;;;5124285;27;20038;-80
2021/06/25 09:42:34;;;;;;;13.65;7.88;;;19.60;80.60;;;;;;5104974;28;20043;-80
2021/06/25 09:45:07;;;;;;;11.68;7.97;;;19.70;76.20;;;;;;5102989;28;20069;-78
2021/06/25 09:47:39;;;;;;;12.07;7.82;;;19.70;78.10;;;;;;5105620;28;21451;-79
2021/06/25 09:50:12;;;;;;;9.20;8.30;;;19.70;78.90;;;;;;5107670;28;20724;-80
2021/06/25 09:52:58;;;;;;;11.52;8.38;;;19.70;79.20;;;;;;5104800;28;20032;-80
2021/06/25 09:55:24;;;;;;;10.45;8.70;;;19.70;82.00;;;;;;5103156;28;20636;-80
2021/06/25 09:58:33;;;;;;;10.27;9.38;;;19.80;82.00;;;;;;5103757;28;20156;-79
2021/06/25 10:01:22;;;;;;;11.82;8.95;;;19.60;82.40;;;;;;5108647;28;20058;-80
2021/06/25 10:04:01;;;;;;;13.32;10.35;;;19.60;82.20;;;;;;5111807;28;20038;-80
2021/06/25 10:06:29;;;;;;;12.45;9.57;;;19.60;84.20;;;;;;5111374;28;20111;-81
2021/06/25 10:08:56;;;;;;;11.05;9.32;;;19.70;82.20;;;;;;5109208;28;20040;-80
2021/06/25 10:11:32;;;;;;;10.70;8.70;;;19.70;81.40;;;;;;5106700;28;20035;-79
2021/06/25 10:14:01;;;;;;;12.55;8.90;;;19.80;82.90;;;;;;5102486;28;20035;-80
2021/06/25 10:16:28;;;;;;;10.30;9.02;;;19.90;82.10;;;;;;5111335;27;20038;-80
2021/06/25 10:21:28;;;;;;;11.27;10.00;;;20.00;83.50;;;;;;5074092;28;20044;-64
2021/06/25 10:23:57;;;;;;;11.48;10.10;;;20.20;84.20;;;;;;5079719;28;20039;-63
2021/06/25 10:26:23;;;;;;;10.68;9.57;;;20.30;83.50;;;;;;5081455;28;20957;-64
2021/06/25 10:28:51;;;;;;;12.95;10.77;;;20.40;82.80;;;;;;5082683;28;20387;-65
2021/06/25 10:31:21;;;;;;;17.38;11.63;;;20.60;83.40;;;;;;5074575;28;20048;-64
2021/06/25 10:33:47;;;;;;;13.32;12.02;;;20.70;83.10;;;;;;5081027;28;20036;-64
2021/06/25 10:36:15;;;;;;;16.38;12.20;;;20.70;83.30;;;;;;5079056;28;20070;-65
2021/06/25 10:38:43;;;;;;;15.95;12.15;;;20.80;83.10;;;;;;5080617;28;20048;-64
2021/06/25 10:41:11;;;;;;;15.18;12.63;;;21.00;81.10;;;;;;5075057;28;20040;-65
2021/06/25 10:43:46;;;;;;;15.25;13.10;;;21.20;82.60;;;;;;5077136;28;20044;-65
2021/06/25 10:46:34;;;;;;;13.57;12.20;;;21.50;81.00;;;;;;5077330;28;20067;-65
2021/06/25 10:49:02;;;;;;;14.40;12.43;;;21.60;80.00;;;;;;5075063;28;20032;-65
2021/06/25 10:51:31;;;;;;;17.73;13.15;;;21.70;79.70;;;;;;5075741;28;20036;-65
2021/06/25 10:54:18;;;;;;;15.60;14.00;;;21.80;81.60;;;;;;5077254;28;20044;-65
2021/06/25 10:56:49;;;;;;;18.73;14.50;;;21.90;81.30;;;;;;5086512;28;20044;-64
2021/06/25 10:59:28;;;;;;;16.45;14.07;;;21.90;81.40;;;;;;5086164;28;20166;-65
2021/06/25 11:01:55;;;;;;;16.40;14.13;;;22.10;82.10;;;;;;5087221;28;20447;-65
2021/06/25 11:04:47;;;;;;;15.32;13.63;;;22.20;79.70;;;;;;5086393;28;20504;-64
2021/06/25 11:07:16;;;;;;;14.90;13.40;;;22.30;80.80;;;;;;5083820;28;20036;-64
2021/06/25 11:09:59;;;;;;;14.48;12.98;;;22.30;80.60;;;;;;5084911;28;20040;-64
2021/06/25 11:12:29;;;;;;;15.07;13.45;;;22.30;81.50;;;;;;5084550;28;20040;-65
2021/06/25 11:15:05;;;;;;;14.70;13.02;;;22.20;80.90;;;;;;5084024;28;20063;-65
2021/06/25 11:17:55;;;;;;;15.30;14.02;;;22.20;83.00;;;;;;5081924;28;20044;-65
2021/06/25 11:20:35;;;;;;;15.75;14.05;;;22.10;84.00;;;;;;5084441;28;20111;-65
2021/06/25 11:23:01;;;;;;;14.77;13.40;;;22.10;82.20;;;;;;5085182;28;20032;-65
2021/06/25 11:25:40;;;;;;;14.98;13.57;;;22.10;81.90;;;;;;5084394;28;20039;-65
2021/06/25 11:28:31;;;;;;;15.50;12.88;;;22.20;82.90;;;;;;5082866;28;20077;-64
2021/06/25 11:31:01;;;;;;;14.20;12.75;;;22.20;82.60;;;;;;5092526;28;20505;-64
2021/06/25 11:33:39;;;;;;;15.07;13.50;;;22.20;84.50;;;;;;5093401;28;20397;-65
2021/06/25 11:36:14;;;;;;;17.55;13.55;;;22.20;83.90;;;;;;5090180;28;20036;-65
2021/06/25 11:39:14;;;;;;;15.80;14.20;;;22.20;82.80;;;;;;5090662;28;20055;-64
2021/06/25 11:41:57;;;;;;;14.98;13.45;;;22.20;81.80;;;;;;5091122;28;20067;-64
2021/06/25 11:44:25;;;;;;;15.55;13.77;;;22.00;82.90;;;;;;5090283;28;20040;-64
2021/06/25 11:46:54;;;;;;;15.00;13.48;;;21.90;82.80;;;;;;5090889;28;20067;-65
2021/06/25 11:49:20;;;;;;;14.25;12.93;;;22.00;82.10;;;;;;5091420;28;20040;-64
2021/06/25 11:51:47;;;;;;;15.40;13.80;;;22.10;83.00;;;;;;5092469;28;20453;-64
2021/06/25 11:54:19;;;;;;;18.95;13.82;;;22.30;82.00;;;;;;5091712;28;20028;-65
2021/06/25 11:56:46;;;;;;;15.27;13.25;;;22.50;81.60;;;;;;5092595;28;20048;-65
2021/06/25 11:59:13;;;;;;;16.65;13.38;;;22.60;83.50;;;;;;5091094;28;20032;-65
2021/06/25 12:02:01;;;;;;;15.82;14.15;;;22.80;82.60;;;;;;5089310;28;20078;-64
2021/06/25 12:04:35;;;;;;;20.52;17.48;;;23.00;84.30;;;;;;5093126;28;20032;-65
2021/06/25 12:07:03;;;;;;;20.35;16.52;;;23.20;83.50;;;;;;5090873;28;20040;-65
2021/06/25 12:09:45;;;;;;;19.58;17.67;;;23.20;84.50;;;;;;5090536;28;20075;-65
2021/06/25 12:12:27;;;;;;;18.88;17.08;;;23.20;84.30;;;;;;5092429;28;20047;-65
2021/06/25 12:15:01;;;;;;;19.40;17.45;;;23.10;83.30;;;;;;5094541;28;20032;-65
2021/06/25 12:17:58;;;;;;;19.95;17.95;;;23.10;85.00;;;;;;5090820;28;20126;-65
2021/06/25 12:20:25;;;;;;;20.00;17.92;;;22.80;84.50;;;;;;5078060;28;20094;-65
2021/06/25 12:22:57;;;;;;;21.25;18.58;;;22.70;86.00;;;;;;5091378;28;20597;-65
2021/06/25 12:25:44;;;;;;;19.13;17.23;;;22.60;86.10;;;;;;5090685;28;20040;-65
2021/06/25 12:28:21;;;;;;;20.17;18.08;;;22.50;88.40;;;;;;5092061;28;20035;-65
2021/06/25 12:30:48;;;;;;;22.45;18.13;;;22.40;88.60;;;;;;5089977;28;20052;-65
2021/06/25 12:33:15;;;;;;;19.65;17.30;;;22.30;86.50;;;;;;5092001;28;20031;-65
2021/06/25 12:35:46;;;;;;;27.35;18.05;;;22.20;88.20;;;;;;5090766;28;20587;-64
2021/06/25 12:38:15;;;;;;;21.48;18.30;;;22.00;88.40;;;;;;5091701;28;20069;-64
2021/06/25 12:40:53;;;;;;;21.70;19.35;;;21.90;89.00;;;;;;5081005;28;20119;-64
2021/06/25 12:43:30;;;;;;;24.05;20.45;;;21.70;90.30;;;;;;5083614;28;20545;-65
2021/06/25 12:46:04;;;;;;;27.67;20.00;;;21.70;91.40;;;;;;5083783;28;20638;-65
2021/06/25 12:48:36;;;;;;;21.58;19.38;;;21.70;90.90;;;;;;5083534;28;20085;-64
2021/06/25 12:51:06;;;;;;;25.42;20.17;;;21.70;91.80;;;;;;5083709;28;20118;-65
2021/06/25 12:53:36;;;;;;;25.92;21.65;;;21.70;92.10;;;;;;5086045;28;20040;-64
2021/06/25 12:56:11;;;;;;;23.65;21.33;;;21.70;93.50;;;;;;5085859;28;20047;-64
2021/06/25 12:58:39;;;;;;;22.38;20.10;;;21.80;93.40;;;;;;5083242;28;20051;-65
2021/06/25 13:01:06;;;;;;;24.05;20.90;;;21.80;93.60;;;;;;5080329;28;20038;-65
2021/06/25 13:03:32;;;;;;;22.02;19.50;;;21.80;92.40;;;;;;5085523;28;20040;-65